sensor_id;sensor_type;location;lat;lon;timestamp;temperature;humidity
51500;DHT22;39101;53.478;6.158;2022-08-11T00:01:28;18.10;99.90
51500;DHT22;39101;53.478;6.158;2022-08-11T00:07:29;17.90;99.90
51500;DHT22;39101;53.478;6.158;2022-08-11T00:09:55;17.90;99.90
51500;DHT22;39101;53.478;6.158;2022-08-11T00:12:24;17.90;99.90
51500;DHT22;39101;53.478;6.158;2022-08-11T00:14:59;17.80;99.90
51500;DHT22;39101;53.478;6.158;2022-08-11T00:17:35;17.80;99.90
51500;DHT22;39101;53.478;6.158;2022-08-11T00:20:08;17.80;99.90
51500;DHT22;39101;53.478;6.158;2022-08-11T00:22:40;18.00;99.90
51500;DHT22;39101;53.478;6.158;2022-08-11T00:25:15;17.90;99.90
51500;DHT22;39101;53.478;6.158;2022-08-11T00:27:42;17.80;99.90
51500;DHT22;39101;53.478;6.158;2022-08-11T00:30:31;18.00;99.90
51500;DHT22;39101;53.478;6.158;2022-08-11T00:33:03;17.90;99.90
51500;DHT22;39101;53.478;6.158;2022-08-11T00:35:30;17.90;99.90
51500;DHT22;39101;53.478;6.158;2022-08-11T00:37:57;17.90;99.90
51500;DHT22;39101;53.478;6.158;2022-08-11T00:40:32;17.80;99.90
51500;DHT22;39101;53.478;6.158;2022-08-11T00:43:19;17.70;99.90
51500;DHT22;39101;53.478;6.158;2022-08-11T00:54:53;17.70;99.90
51500;DHT22;39101;53.478;6.158;2022-08-11T01:00:11;17.70;99.90
51500;DHT22;39101;53.478;6.158;2022-08-11T01:32:22;17.70;99.90
51500;DHT22;39101;53.478;6.158;2022-08-11T01:53:30;17.80;99.90
51500;DHT22;39101;53.478;6.158;2022-08-11T02:07:51;17.70;99.90
51500;DHT22;39101;53.478;6.158;2022-08-11T02:16:47;17.70;99.90
51500;DHT22;39101;53.478;6.158;2022-08-11T02:22:45;17.70;99.90
51500;DHT22;39101;53.478;6.158;2022-08-11T02:25:56;17.60;99.90
51500;DHT22;39101;53.478;6.158;2022-08-11T02:34:27;17.60;99.90
51500;DHT22;39101;53.478;6.158;2022-08-11T02:37:17;17.50;99.90
51500;DHT22;39101;53.478;6.158;2022-08-11T02:40:09;17.70;99.90
51500;DHT22;39101;53.478;6.158;2022-08-11T02:48:26;17.60;99.90
51500;DHT22;39101;53.478;6.158;2022-08-11T02:57:03;17.50;99.90
51500;DHT22;39101;53.478;6.158;2022-08-11T02:59:33;17.70;99.90
51500;DHT22;39101;53.478;6.158;2022-08-11T03:04:57;17.50;99.90
51500;DHT22;39101;53.478;6.158;2022-08-11T03:13:33;17.50;99.90
51500;DHT22;39101;53.478;6.158;2022-08-11T03:16:40;17.60;99.90
51500;DHT22;39101;53.478;6.158;2022-08-11T03:30:53;17.70;99.90
51500;DHT22;39101;53.478;6.158;2022-08-11T03:33:36;17.70;99.90
51500;DHT22;39101;53.478;6.158;2022-08-11T03:45:00;17.70;99.90
51500;DHT22;39101;53.478;6.158;2022-08-11T04:26:21;17.60;99.90
51500;DHT22;39101;53.478;6.158;2022-08-11T04:40:53;17.70;99.90
51500;DHT22;39101;53.478;6.158;2022-08-11T04:56:31;17.90;99.90
51500;DHT22;39101;53.478;6.158;2022-08-11T05:11:11;18.10;99.90
51500;DHT22;39101;53.478;6.158;2022-08-11T05:13:47;18.10;99.90
51500;DHT22;39101;53.478;6.158;2022-08-11T05:20:08;18.30;99.90
51500;DHT22;39101;53.478;6.158;2022-08-11T05:23:04;18.40;99.90
51500;DHT22;39101;53.478;6.158;2022-08-11T05:25:54;18.40;99.90
51500;DHT22;39101;53.478;6.158;2022-08-11T05:29:02;18.50;99.90
51500;DHT22;39101;53.478;6.158;2022-08-11T05:32:06;18.50;99.90
51500;DHT22;39101;53.478;6.158;2022-08-11T05:35:10;18.60;99.90
51500;DHT22;39101;53.478;6.158;2022-08-11T05:37:42;18.60;99.90
51500;DHT22;39101;53.478;6.158;2022-08-11T05:40:27;18.70;99.90
51500;DHT22;39101;53.478;6.158;2022-08-11T05:43:12;18.90;99.90
51500;DHT22;39101;53.478;6.158;2022-08-11T05:46:02;18.80;99.90
51500;DHT22;39101;53.478;6.158;2022-08-11T05:48:50;18.90;99.90
51500;DHT22;39101;53.478;6.158;2022-08-11T05:51:40;18.90;99.90
51500;DHT22;39101;53.478;6.158;2022-08-11T05:54:28;19.10;99.90
51500;DHT22;39101;53.478;6.158;2022-08-11T05:57:26;19.10;99.90
51500;DHT22;39101;53.478;6.158;2022-08-11T06:00:03;19.20;99.90
51500;DHT22;39101;53.478;6.158;2022-08-11T06:02:31;19.20;99.90
51500;DHT22;39101;53.478;6.158;2022-08-11T06:04:59;19.40;99.90
51500;DHT22;39101;53.478;6.158;2022-08-11T06:07:28;19.40;99.90
51500;DHT22;39101;53.478;6.158;2022-08-11T06:09:55;19.60;99.90
51500;DHT22;39101;53.478;6.158;2022-08-11T06:12:31;19.50;99.90
51500;DHT22;39101;53.478;6.158;2022-08-11T06:15:06;19.70;99.90
51500;DHT22;39101;53.478;6.158;2022-08-11T06:17:45;19.70;99.90
51500;DHT22;39101;53.478;6.158;2022-08-11T06:20:24;19.80;99.90
51500;DHT22;39101;53.478;6.158;2022-08-11T06:23:03;19.70;99.90
51500;DHT22;39101;53.478;6.158;2022-08-11T06:25:34;19.90;99.90
51500;DHT22;39101;53.478;6.158;2022-08-11T06:31:21;20.10;99.90
51500;DHT22;39101;53.478;6.158;2022-08-11T06:46:47;20.40;99.90
51500;DHT22;39101;53.478;6.158;2022-08-11T06:49:16;20.40;99.90
51500;DHT22;39101;53.478;6.158;2022-08-11T06:52:08;20.50;99.90
51500;DHT22;39101;53.478;6.158;2022-08-11T06:54:47;20.60;99.90
51500;DHT22;39101;53.478;6.158;2022-08-11T06:57:18;20.70;99.90
51500;DHT22;39101;53.478;6.158;2022-08-11T07:00:03;20.70;99.90
51500;DHT22;39101;53.478;6.158;2022-08-11T07:05:40;20.90;99.90
51500;DHT22;39101;53.478;6.158;2022-08-11T07:08:51;20.90;99.90
51500;DHT22;39101;53.478;6.158;2022-08-11T07:14:56;21.20;99.90
51500;DHT22;39101;53.478;6.158;2022-08-11T07:17:51;21.10;99.90
51500;DHT22;39101;53.478;6.158;2022-08-11T07:20:40;21.30;99.90
51500;DHT22;39101;53.478;6.158;2022-08-11T07:23:33;21.30;99.90
51500;DHT22;39101;53.478;6.158;2022-08-11T07:26:23;21.40;99.90
51500;DHT22;39101;53.478;6.158;2022-08-11T07:29:10;21.50;99.90
51500;DHT22;39101;53.478;6.158;2022-08-11T07:31:42;21.50;99.90
51500;DHT22;39101;53.478;6.158;2022-08-11T07:36:58;21.70;99.90
51500;DHT22;39101;53.478;6.158;2022-08-11T07:39:26;21.70;99.90
51500;DHT22;39101;53.478;6.158;2022-08-11T07:41:55;21.70;99.90
51500;DHT22;39101;53.478;6.158;2022-08-11T07:44:23;21.80;99.90
51500;DHT22;39101;53.478;6.158;2022-08-11T07:46:53;21.90;99.90
51500;DHT22;39101;53.478;6.158;2022-08-11T07:49:39;22.00;99.90
51500;DHT22;39101;53.478;6.158;2022-08-11T07:52:33;22.00;99.90
51500;DHT22;39101;53.478;6.158;2022-08-11T07:55:05;22.00;99.90
51500;DHT22;39101;53.478;6.158;2022-08-11T07:57:32;22.10;99.90
51500;DHT22;39101;53.478;6.158;2022-08-11T08:00:17;22.10;99.90
51500;DHT22;39101;53.478;6.158;2022-08-11T08:03:04;22.10;99.90
51500;DHT22;39101;53.478;6.158;2022-08-11T08:05:49;22.20;99.90
51500;DHT22;39101;53.478;6.158;2022-08-11T08:08:35;22.20;99.90
51500;DHT22;39101;53.478;6.158;2022-08-11T08:11:20;22.30;99.90
51500;DHT22;39101;53.478;6.158;2022-08-11T08:17:33;22.50;99.90
51500;DHT22;39101;53.478;6.158;2022-08-11T08:20:29;22.40;99.90
51500;DHT22;39101;53.478;6.158;2022-08-11T08:22:58;22.50;99.90
51500;DHT22;39101;53.478;6.158;2022-08-11T08:25:33;22.60;99.90
51500;DHT22;39101;53.478;6.158;2022-08-11T08:28:02;22.60;99.90
51500;DHT22;39101;53.478;6.158;2022-08-11T08:30:50;22.60;99.90
51500;DHT22;39101;53.478;6.158;2022-08-11T08:33:26;22.70;99.90
51500;DHT22;39101;53.478;6.158;2022-08-11T08:36:03;22.70;99.90
51500;DHT22;39101;53.478;6.158;2022-08-11T08:38:40;22.80;99.90
51500;DHT22;39101;53.478;6.158;2022-08-11T08:41:08;22.80;99.90
51500;DHT22;39101;53.478;6.158;2022-08-11T08:43:35;22.90;99.90
51500;DHT22;39101;53.478;6.158;2022-08-11T08:46:03;23.00;99.90
51500;DHT22;39101;53.478;6.158;2022-08-11T08:48:31;23.00;99.90
51500;DHT22;39101;53.478;6.158;2022-08-11T08:51:03;23.10;99.90
51500;DHT22;39101;53.478;6.158;2022-08-11T08:53:51;23.20;99.90
51500;DHT22;39101;53.478;6.158;2022-08-11T08:56:19;23.30;99.90
51500;DHT22;39101;53.478;6.158;2022-08-11T08:58:50;23.30;99.90
51500;DHT22;39101;53.478;6.158;2022-08-11T09:01:17;23.30;99.90
51500;DHT22;39101;53.478;6.158;2022-08-11T09:03:45;23.30;99.90
51500;DHT22;39101;53.478;6.158;2022-08-11T09:06:12;23.40;99.90
51500;DHT22;39101;53.478;6.158;2022-08-11T09:08:42;23.40;99.90
51500;DHT22;39101;53.478;6.158;2022-08-11T09:11:09;23.50;99.90
51500;DHT22;39101;53.478;6.158;2022-08-11T09:13:54;23.60;99.90
51500;DHT22;39101;53.478;6.158;2022-08-11T09:16:22;23.70;99.90
51500;DHT22;39101;53.478;6.158;2022-08-11T09:18:49;23.80;99.90
51500;DHT22;39101;53.478;6.158;2022-08-11T09:21:16;23.80;99.90
51500;DHT22;39101;53.478;6.158;2022-08-11T09:23:48;23.80;99.90
51500;DHT22;39101;53.478;6.158;2022-08-11T09:26:39;23.80;99.90
51500;DHT22;39101;53.478;6.158;2022-08-11T09:29:27;23.90;99.90
51500;DHT22;39101;53.478;6.158;2022-08-11T09:31:54;23.90;99.90
51500;DHT22;39101;53.478;6.158;2022-08-11T09:34:21;23.90;99.90
51500;DHT22;39101;53.478;6.158;2022-08-11T09:36:47;23.90;99.90
51500;DHT22;39101;53.478;6.158;2022-08-11T09:39:35;23.90;99.90
51500;DHT22;39101;53.478;6.158;2022-08-11T09:42:21;23.90;99.90
51500;DHT22;39101;53.478;6.158;2022-08-11T09:45:10;23.90;99.90
51500;DHT22;39101;53.478;6.158;2022-08-11T09:47:37;24.00;99.90
51500;DHT22;39101;53.478;6.158;2022-08-11T09:50:03;24.00;99.90
51500;DHT22;39101;53.478;6.158;2022-08-11T09:52:37;24.00;99.90
51500;DHT22;39101;53.478;6.158;2022-08-11T09:55:05;24.10;99.90
51500;DHT22;39101;53.478;6.158;2022-08-11T09:57:38;24.10;99.90
51500;DHT22;39101;53.478;6.158;2022-08-11T10:00:31;24.20;99.90
51500;DHT22;39101;53.478;6.158;2022-08-11T10:02:58;24.20;99.90
51500;DHT22;39101;53.478;6.158;2022-08-11T10:05:28;24.20;99.90
51500;DHT22;39101;53.478;6.158;2022-08-11T10:08:16;24.30;99.90
51500;DHT22;39101;53.478;6.158;2022-08-11T10:11:02;24.20;99.90
51500;DHT22;39101;53.478;6.158;2022-08-11T10:13:32;24.30;99.90
51500;DHT22;39101;53.478;6.158;2022-08-11T10:16:28;24.40;99.90
51500;DHT22;39101;53.478;6.158;2022-08-11T10:18:55;24.40;99.90
51500;DHT22;39101;53.478;6.158;2022-08-11T10:24:00;24.50;99.90
51500;DHT22;39101;53.478;6.158;2022-08-11T10:26:47;24.60;99.90
51500;DHT22;39101;53.478;6.158;2022-08-11T10:29:35;24.70;99.90
51500;DHT22;39101;53.478;6.158;2022-08-11T10:32:23;24.70;99.90
51500;DHT22;39101;53.478;6.158;2022-08-11T10:35:09;24.70;99.90
51500;DHT22;39101;53.478;6.158;2022-08-11T10:37:41;24.80;99.90
51500;DHT22;39101;53.478;6.158;2022-08-11T10:40:09;24.90;99.90
51500;DHT22;39101;53.478;6.158;2022-08-11T10:45:45;25.00;99.90
51500;DHT22;39101;53.478;6.158;2022-08-11T10:48:35;25.00;99.90
51500;DHT22;39101;53.478;6.158;2022-08-11T10:51:03;25.00;99.90
51500;DHT22;39101;53.478;6.158;2022-08-11T10:53:43;25.10;99.90
51500;DHT22;39101;53.478;6.158;2022-08-11T10:56:30;25.10;99.90
51500;DHT22;39101;53.478;6.158;2022-08-11T10:59:19;25.20;99.90
51500;DHT22;39101;53.478;6.158;2022-08-11T11:01:46;25.10;99.90
51500;DHT22;39101;53.478;6.158;2022-08-11T11:04:13;25.20;99.90
51500;DHT22;39101;53.478;6.158;2022-08-11T11:09:27;25.10;99.90
51500;DHT22;39101;53.478;6.158;2022-08-11T11:15:15;24.90;99.90
51500;DHT22;39101;53.478;6.158;2022-08-11T11:18:26;24.90;99.90
51500;DHT22;39101;53.478;6.158;2022-08-11T11:21:05;24.90;99.90
51500;DHT22;39101;53.478;6.158;2022-08-11T11:26:34;24.90;99.90
51500;DHT22;39101;53.478;6.158;2022-08-11T11:37:32;24.80;99.90
51500;DHT22;39101;53.478;6.158;2022-08-11T11:40:06;24.80;99.90
51500;DHT22;39101;53.478;6.158;2022-08-11T11:42:35;24.80;99.90
51500;DHT22;39101;53.478;6.158;2022-08-11T11:45:02;24.80;99.90
51500;DHT22;39101;53.478;6.158;2022-08-11T11:47:30;24.80;99.90
51500;DHT22;39101;53.478;6.158;2022-08-11T11:49:56;24.80;99.90
51500;DHT22;39101;53.478;6.158;2022-08-11T11:52:23;24.70;99.90
51500;DHT22;39101;53.478;6.158;2022-08-11T11:54:51;24.70;99.90
51500;DHT22;39101;53.478;6.158;2022-08-11T11:57:23;24.60;99.90
51500;DHT22;39101;53.478;6.158;2022-08-11T12:00:09;24.60;99.90
51500;DHT22;39101;53.478;6.158;2022-08-11T12:02:58;24.50;99.90
51500;DHT22;39101;53.478;6.158;2022-08-11T12:05:25;24.50;99.90
51500;DHT22;39101;53.478;6.158;2022-08-11T12:07:55;24.40;99.90
51500;DHT22;39101;53.478;6.158;2022-08-11T12:11:06;24.30;99.90
51500;DHT22;39101;53.478;6.158;2022-08-11T12:13:52;24.20;99.90
51500;DHT22;39101;53.478;6.158;2022-08-11T12:16:21;24.10;99.90
51500;DHT22;39101;53.478;6.158;2022-08-11T12:18:50;24.10;99.90
51500;DHT22;39101;53.478;6.158;2022-08-11T12:21:18;24.10;99.90
51500;DHT22;39101;53.478;6.158;2022-08-11T12:23:46;24.10;99.90
51500;DHT22;39101;53.478;6.158;2022-08-11T12:26:31;24.10;99.90
51500;DHT22;39101;53.478;6.158;2022-08-11T12:29:18;24.10;99.90
51500;DHT22;39101;53.478;6.158;2022-08-11T12:31:44;24.10;99.90
51500;DHT22;39101;53.478;6.158;2022-08-11T12:34:13;24.10;99.90
51500;DHT22;39101;53.478;6.158;2022-08-11T12:36:41;24.10;99.90
51500;DHT22;39101;53.478;6.158;2022-08-11T12:39:22;24.10;99.90
51500;DHT22;39101;53.478;6.158;2022-08-11T12:42:16;24.20;99.90
51500;DHT22;39101;53.478;6.158;2022-08-11T12:45:01;24.00;99.90
51500;DHT22;39101;53.478;6.158;2022-08-11T12:47:49;24.10;99.90
51500;DHT22;39101;53.478;6.158;2022-08-11T12:50:35;24.10;99.90
51500;DHT22;39101;53.478;6.158;2022-08-11T12:53:26;24.10;99.90
51500;DHT22;39101;53.478;6.158;2022-08-11T12:56:03;24.00;99.90
51500;DHT22;39101;53.478;6.158;2022-08-11T12:58:51;24.10;99.90
51500;DHT22;39101;53.478;6.158;2022-08-11T13:01:18;24.10;99.90
51500;DHT22;39101;53.478;6.158;2022-08-11T13:04:03;24.10;99.90
51500;DHT22;39101;53.478;6.158;2022-08-11T13:06:49;24.10;99.90
51500;DHT22;39101;53.478;6.158;2022-08-11T13:09:28;24.20;99.90
51500;DHT22;39101;53.478;6.158;2022-08-11T13:11:56;24.30;99.90
51500;DHT22;39101;53.478;6.158;2022-08-11T13:14:41;24.30;99.90
51500;DHT22;39101;53.478;6.158;2022-08-11T13:17:07;24.10;99.90
51500;DHT22;39101;53.478;6.158;2022-08-11T13:19:51;24.10;99.90
51500;DHT22;39101;53.478;6.158;2022-08-11T13:22:19;24.10;99.90
51500;DHT22;39101;53.478;6.158;2022-08-11T13:24:47;24.10;99.90
51500;DHT22;39101;53.478;6.158;2022-08-11T13:27:17;24.00;99.90
51500;DHT22;39101;53.478;6.158;2022-08-11T13:29:45;24.00;99.90
51500;DHT22;39101;53.478;6.158;2022-08-11T13:32:13;24.00;99.90
51500;DHT22;39101;53.478;6.158;2022-08-11T13:34:40;24.00;99.90
51500;DHT22;39101;53.478;6.158;2022-08-11T13:37:09;24.00;99.90
51500;DHT22;39101;53.478;6.158;2022-08-11T13:39:41;24.00;99.90
51500;DHT22;39101;53.478;6.158;2022-08-11T13:42:14;23.90;99.90
51500;DHT22;39101;53.478;6.158;2022-08-11T13:44:45;23.90;99.90
51500;DHT22;39101;53.478;6.158;2022-08-11T13:47:12;23.90;99.90
51500;DHT22;39101;53.478;6.158;2022-08-11T13:49:39;23.90;99.90
51500;DHT22;39101;53.478;6.158;2022-08-11T13:52:10;24.00;99.90
51500;DHT22;39101;53.478;6.158;2022-08-11T13:54:40;24.00;99.90
51500;DHT22;39101;53.478;6.158;2022-08-11T13:57:08;24.00;99.90
51500;DHT22;39101;53.478;6.158;2022-08-11T13:59:37;24.00;99.90
51500;DHT22;39101;53.478;6.158;2022-08-11T14:02:11;24.00;99.90
51500;DHT22;39101;53.478;6.158;2022-08-11T14:04:58;24.00;99.90
51500;DHT22;39101;53.478;6.158;2022-08-11T14:07:33;24.00;99.90
51500;DHT22;39101;53.478;6.158;2022-08-11T14:10:00;23.90;99.90
51500;DHT22;39101;53.478;6.158;2022-08-11T14:12:30;23.90;99.90
51500;DHT22;39101;53.478;6.158;2022-08-11T14:15:22;23.90;99.90
51500;DHT22;39101;53.478;6.158;2022-08-11T14:18:08;23.80;99.90
51500;DHT22;39101;53.478;6.158;2022-08-11T14:20:40;23.80;99.90
51500;DHT22;39101;53.478;6.158;2022-08-11T14:23:51;23.90;99.90
51500;DHT22;39101;53.478;6.158;2022-08-11T14:26:24;23.90;99.90
51500;DHT22;39101;53.478;6.158;2022-08-11T14:29:09;23.90;99.90
51500;DHT22;39101;53.478;6.158;2022-08-11T14:31:37;23.80;99.90
51500;DHT22;39101;53.478;6.158;2022-08-11T14:34:08;23.80;99.90
51500;DHT22;39101;53.478;6.158;2022-08-11T14:36:43;23.80;99.90
51500;DHT22;39101;53.478;6.158;2022-08-11T14:39:15;23.60;99.90
51500;DHT22;39101;53.478;6.158;2022-08-11T14:41:46;23.70;99.90
51500;DHT22;39101;53.478;6.158;2022-08-11T14:44:34;23.70;99.90
51500;DHT22;39101;53.478;6.158;2022-08-11T14:47:19;23.70;99.90
51500;DHT22;39101;53.478;6.158;2022-08-11T14:49:46;23.70;99.90
51500;DHT22;39101;53.478;6.158;2022-08-11T14:52:15;23.60;99.90
51500;DHT22;39101;53.478;6.158;2022-08-11T14:54:47;23.60;99.90
51500;DHT22;39101;53.478;6.158;2022-08-11T14:57:40;23.60;99.90
51500;DHT22;39101;53.478;6.158;2022-08-11T15:00:09;23.60;99.90
51500;DHT22;39101;53.478;6.158;2022-08-11T15:02:40;23.50;99.90
51500;DHT22;39101;53.478;6.158;2022-08-11T15:05:25;23.60;99.90
51500;DHT22;39101;53.478;6.158;2022-08-11T15:07:53;23.50;99.90
51500;DHT22;39101;53.478;6.158;2022-08-11T15:10:20;23.40;99.90
51500;DHT22;39101;53.478;6.158;2022-08-11T15:12:47;23.40;99.90
51500;DHT22;39101;53.478;6.158;2022-08-11T15:15:15;23.40;99.90
51500;DHT22;39101;53.478;6.158;2022-08-11T15:18:02;23.40;99.90
51500;DHT22;39101;53.478;6.158;2022-08-11T15:20:30;23.50;99.90
51500;DHT22;39101;53.478;6.158;2022-08-11T15:23:15;23.50;99.90
51500;DHT22;39101;53.478;6.158;2022-08-11T15:26:47;23.50;99.90
51500;DHT22;39101;53.478;6.158;2022-08-11T15:29:11;23.50;99.90
51500;DHT22;39101;53.478;6.158;2022-08-11T15:31:57;23.40;99.90
51500;DHT22;39101;53.478;6.158;2022-08-11T15:38:23;23.40;99.90
51500;DHT22;39101;53.478;6.158;2022-08-11T15:40:50;23.40;99.90
51500;DHT22;39101;53.478;6.158;2022-08-11T15:43:41;23.40;99.90
51500;DHT22;39101;53.478;6.158;2022-08-11T15:46:40;23.40;99.90
51500;DHT22;39101;53.478;6.158;2022-08-11T15:49:28;23.40;99.90
51500;DHT22;39101;53.478;6.158;2022-08-11T15:52:06;23.40;99.90
51500;DHT22;39101;53.478;6.158;2022-08-11T15:54:37;23.50;99.90
51500;DHT22;39101;53.478;6.158;2022-08-11T16:00:46;23.40;99.90
51500;DHT22;39101;53.478;6.158;2022-08-11T16:06:47;23.40;99.90
51500;DHT22;39101;53.478;6.158;2022-08-11T16:09:16;23.50;99.90
51500;DHT22;39101;53.478;6.158;2022-08-11T16:11:43;23.60;99.90
51500;DHT22;39101;53.478;6.158;2022-08-11T16:14:13;23.60;99.90
51500;DHT22;39101;53.478;6.158;2022-08-11T16:16:58;23.70;99.90
51500;DHT22;39101;53.478;6.158;2022-08-11T16:19:27;23.60;99.90
51500;DHT22;39101;53.478;6.158;2022-08-11T16:21:59;23.60;99.90
51500;DHT22;39101;53.478;6.158;2022-08-11T16:24:25;23.60;99.90
51500;DHT22;39101;53.478;6.158;2022-08-11T16:26:54;23.70;99.90
51500;DHT22;39101;53.478;6.158;2022-08-11T16:29:23;23.70;99.90
51500;DHT22;39101;53.478;6.158;2022-08-11T16:31:50;23.60;99.90
51500;DHT22;39101;53.478;6.158;2022-08-11T16:34:57;23.60;99.90
51500;DHT22;39101;53.478;6.158;2022-08-11T16:37:43;23.60;99.90
51500;DHT22;39101;53.478;6.158;2022-08-11T16:40:28;23.50;99.90
51500;DHT22;39101;53.478;6.158;2022-08-11T16:42:55;23.60;99.90
51500;DHT22;39101;53.478;6.158;2022-08-11T16:45:42;23.60;99.90
51500;DHT22;39101;53.478;6.158;2022-08-11T16:48:32;23.60;99.90
51500;DHT22;39101;53.478;6.158;2022-08-11T16:50:58;23.60;99.90
51500;DHT22;39101;53.478;6.158;2022-08-11T16:53:27;23.70;99.90
51500;DHT22;39101;53.478;6.158;2022-08-11T16:55:54;23.70;99.90
51500;DHT22;39101;53.478;6.158;2022-08-11T16:58:42;23.80;99.90
51500;DHT22;39101;53.478;6.158;2022-08-11T17:01:28;23.90;99.90
51500;DHT22;39101;53.478;6.158;2022-08-11T17:04:06;23.80;99.90
51500;DHT22;39101;53.478;6.158;2022-08-11T17:06:53;23.90;99.90
51500;DHT22;39101;53.478;6.158;2022-08-11T17:09:38;23.90;99.90
51500;DHT22;39101;53.478;6.158;2022-08-11T17:12:29;24.00;99.90
51500;DHT22;39101;53.478;6.158;2022-08-11T17:15:17;24.00;99.90
51500;DHT22;39101;53.478;6.158;2022-08-11T17:18:04;24.00;99.90
51500;DHT22;39101;53.478;6.158;2022-08-11T17:20:31;24.10;99.90
51500;DHT22;39101;53.478;6.158;2022-08-11T17:22:59;24.20;99.90
51500;DHT22;39101;53.478;6.158;2022-08-11T17:25:45;24.30;99.90
51500;DHT22;39101;53.478;6.158;2022-08-11T17:28:14;24.60;99.90
51500;DHT22;39101;53.478;6.158;2022-08-11T17:30:41;24.80;99.90
51500;DHT22;39101;53.478;6.158;2022-08-11T17:33:28;24.90;99.90
51500;DHT22;39101;53.478;6.158;2022-08-11T17:36:17;25.10;99.90
51500;DHT22;39101;53.478;6.158;2022-08-11T17:38:44;25.10;99.90
51500;DHT22;39101;53.478;6.158;2022-08-11T17:41:12;25.10;99.90
51500;DHT22;39101;53.478;6.158;2022-08-11T17:43:58;25.10;99.90
51500;DHT22;39101;53.478;6.158;2022-08-11T17:46:43;24.90;99.90
51500;DHT22;39101;53.478;6.158;2022-08-11T17:49:29;24.90;99.90
51500;DHT22;39101;53.478;6.158;2022-08-11T17:52:02;24.90;99.90
51500;DHT22;39101;53.478;6.158;2022-08-11T17:54:51;25.10;99.90
51500;DHT22;39101;53.478;6.158;2022-08-11T17:57:38;25.30;99.90
51500;DHT22;39101;53.478;6.158;2022-08-11T18:00:24;25.40;99.90
51500;DHT22;39101;53.478;6.158;2022-08-11T18:02:55;25.70;99.90
51500;DHT22;39101;53.478;6.158;2022-08-11T18:05:45;25.90;99.90
51500;DHT22;39101;53.478;6.158;2022-08-11T18:08:13;25.70;99.90
51500;DHT22;39101;53.478;6.158;2022-08-11T18:11:00;25.40;99.90
51500;DHT22;39101;53.478;6.158;2022-08-11T18:13:47;25.10;99.90
51500;DHT22;39101;53.478;6.158;2022-08-11T18:16:31;24.60;99.90
51500;DHT22;39101;53.478;6.158;2022-08-11T18:19:16;24.30;99.90
51500;DHT22;39101;53.478;6.158;2022-08-11T18:22:05;24.00;99.90
51500;DHT22;39101;53.478;6.158;2022-08-11T18:24:55;23.80;99.90
51500;DHT22;39101;53.478;6.158;2022-08-11T18:27:43;23.60;99.90
51500;DHT22;39101;53.478;6.158;2022-08-11T18:30:35;23.40;99.90
51500;DHT22;39101;53.478;6.158;2022-08-11T18:33:26;23.20;99.90
51500;DHT22;39101;53.478;6.158;2022-08-11T18:36:17;23.00;99.90
51500;DHT22;39101;53.478;6.158;2022-08-11T18:39:06;22.90;99.90
51500;DHT22;39101;53.478;6.158;2022-08-11T18:41:58;22.70;99.90
51500;DHT22;39101;53.478;6.158;2022-08-11T18:44:43;22.60;99.90
51500;DHT22;39101;53.478;6.158;2022-08-11T18:47:38;22.50;99.90
51500;DHT22;39101;53.478;6.158;2022-08-11T18:50:25;22.40;99.90
51500;DHT22;39101;53.478;6.158;2022-08-11T18:53:11;22.20;99.90
51500;DHT22;39101;53.478;6.158;2022-08-11T18:55:44;22.10;99.90
51500;DHT22;39101;53.478;6.158;2022-08-11T19:01:57;22.00;99.90
51500;DHT22;39101;53.478;6.158;2022-08-11T19:04:43;21.80;99.90
51500;DHT22;39101;53.478;6.158;2022-08-11T19:07:29;21.80;99.90
51500;DHT22;39101;53.478;6.158;2022-08-11T19:10:14;21.70;99.90
51500;DHT22;39101;53.478;6.158;2022-08-11T19:16:56;21.60;99.90
51500;DHT22;39101;53.478;6.158;2022-08-11T19:19:32;21.50;99.90
51500;DHT22;39101;53.478;6.158;2022-08-11T19:22:19;21.40;99.90
51500;DHT22;39101;53.478;6.158;2022-08-11T19:25:04;21.40;99.90
51500;DHT22;39101;53.478;6.158;2022-08-11T19:27:54;21.40;99.90
51500;DHT22;39101;53.478;6.158;2022-08-11T19:30:42;21.30;99.90
51500;DHT22;39101;53.478;6.158;2022-08-11T19:33:30;21.30;99.90
51500;DHT22;39101;53.478;6.158;2022-08-11T19:36:18;21.20;99.90
51500;DHT22;39101;53.478;6.158;2022-08-11T19:39:02;21.20;99.90
51500;DHT22;39101;53.478;6.158;2022-08-11T19:41:51;21.10;99.90
51500;DHT22;39101;53.478;6.158;2022-08-11T19:44:36;21.10;99.90
51500;DHT22;39101;53.478;6.158;2022-08-11T19:47:24;21.00;99.90
51500;DHT22;39101;53.478;6.158;2022-08-11T19:50:38;21.00;99.90
51500;DHT22;39101;53.478;6.158;2022-08-11T19:53:27;21.00;99.90
51500;DHT22;39101;53.478;6.158;2022-08-11T19:56:11;21.00;99.90
51500;DHT22;39101;53.478;6.158;2022-08-11T19:58:58;20.90;99.90
51500;DHT22;39101;53.478;6.158;2022-08-11T20:01:43;20.90;99.90
51500;DHT22;39101;53.478;6.158;2022-08-11T20:08:05;20.80;99.90
51500;DHT22;39101;53.478;6.158;2022-08-11T20:10:51;20.70;99.90
51500;DHT22;39101;53.478;6.158;2022-08-11T20:13:39;20.70;99.90
51500;DHT22;39101;53.478;6.158;2022-08-11T20:16:25;20.70;99.90
51500;DHT22;39101;53.478;6.158;2022-08-11T20:19:10;20.70;99.90
51500;DHT22;39101;53.478;6.158;2022-08-11T20:21:55;20.70;99.90
51500;DHT22;39101;53.478;6.158;2022-08-11T20:24:41;20.70;99.90
51500;DHT22;39101;53.478;6.158;2022-08-11T20:27:26;20.60;99.90
51500;DHT22;39101;53.478;6.158;2022-08-11T20:30:10;20.60;99.90
51500;DHT22;39101;53.478;6.158;2022-08-11T20:32:55;20.60;99.90
51500;DHT22;39101;53.478;6.158;2022-08-11T20:35:40;20.60;99.90
51500;DHT22;39101;53.478;6.158;2022-08-11T20:38:28;20.60;99.90
51500;DHT22;39101;53.478;6.158;2022-08-11T20:41:13;20.60;99.90
51500;DHT22;39101;53.478;6.158;2022-08-11T20:43:58;20.50;99.90
51500;DHT22;39101;53.478;6.158;2022-08-11T20:46:44;20.50;99.90
51500;DHT22;39101;53.478;6.158;2022-08-11T20:49:31;20.50;99.90
51500;DHT22;39101;53.478;6.158;2022-08-11T20:52:16;20.50;99.90
51500;DHT22;39101;53.478;6.158;2022-08-11T20:55:03;20.50;99.90
51500;DHT22;39101;53.478;6.158;2022-08-11T20:57:48;20.50;99.90
51500;DHT22;39101;53.478;6.158;2022-08-11T21:00:34;20.50;99.90
51500;DHT22;39101;53.478;6.158;2022-08-11T21:03:19;20.40;99.90
51500;DHT22;39101;53.478;6.158;2022-08-11T21:06:04;20.40;99.90
51500;DHT22;39101;53.478;6.158;2022-08-11T21:08:50;20.40;99.90
51500;DHT22;39101;53.478;6.158;2022-08-11T21:11:37;20.30;99.90
51500;DHT22;39101;53.478;6.158;2022-08-11T21:14:22;20.40;99.90
51500;DHT22;39101;53.478;6.158;2022-08-11T21:17:07;20.40;99.90
51500;DHT22;39101;53.478;6.158;2022-08-11T21:19:55;20.30;99.90
51500;DHT22;39101;53.478;6.158;2022-08-11T21:22:56;20.30;99.90
51500;DHT22;39101;53.478;6.158;2022-08-11T21:25:47;20.30;99.90
51500;DHT22;39101;53.478;6.158;2022-08-11T21:28:34;20.20;99.90
51500;DHT22;39101;53.478;6.158;2022-08-11T21:31:19;20.20;99.90